Beaver Islander — WT5906 — position and weather

sailwx.info

Track history (hours):
 
Tides and Currents Weather Stations Pressure Air Temp Water Temp Dewpoint Dewpoint Depression Visibility Wind Speed Wind Dir Waves Ship Positions

Beaver Islander

Owner: BEAVER ISLAND BOAT CO, CHARLEVOIX, MI. More information available from US FCC via Universal Licensing System and Coast Guard Vessel Documentation Center.

Last reported at 2015-Jul-25 23:33 UTC. Time now 2015-Jul-31 23:30 UTC.
Position N 45°44' W 085°30'.

Length 28 m; draft 3 m.

Type: Passenger vessel. MMSI: 366936060.

Date/timePositionNaut miles runAvg speedWind from/ knotsBaromVisibWave heightAir tempDewpointWater temp
2015-Jul-25 23:33N 45°44' W 085°30'1313.1
2015-Jul-25 22:33N 45°32' W 085°23'1313.3
2015-Jul-25 21:33N 45°19' W 085°16'0 0.3
2015-Jul-25 20:33N 45°19' W 085°15'1212.4
2015-Jul-25 19:34N 45°31' W 085°22'1313.2
2015-Jul-25 18:33N 45°43' W 085°29'0 0.5
2015-Jul-25 17:33N 45°43' W 085°29'1312.9
2015-Jul-25 16:33N 45°31' W 085°22'1312.9
2015-Jul-25 15:33N 45°19' W 085°16'0 0.4
2015-Jul-25 14:33N 45°19' W 085°16'1312.6
2015-Jul-25 13:33N 45°31' W 085°22'1313.1
2015-Jul-25 12:33N 45°43' W 085°29'2 2.3
2015-Jul-25 11:29N 45°45' W 085°31'2 0.2
2015-Jul-24 23:33N 45°44' W 085°29'1313.2
2015-Jul-24 22:33N 45°31' W 085°22'1312.9
2015-Jul-24 21:33N 45°19' W 085°16'0 0.2
2015-Jul-24 20:33N 45°19' W 085°15'1212.4
2015-Jul-24 19:33N 45°31' W 085°22'1313.2
2015-Jul-24 18:33N 45°43' W 085°29'1 0.7
2015-Jul-24 17:33N 45°44' W 085°29'1313.1
2015-Jul-24 16:33N 45°31' W 085°22'1313.0
2015-Jul-24 15:33N 45°19' W 085°16'0 0.3
2015-Jul-24 14:33N 45°19' W 085°15'1312.7
2015-Jul-24 13:33N 45°31' W 085°22'1313.3
2015-Jul-24 12:33N 45°43' W 085°29'2 2.2
2015-Jul-24 11:33N 45°45' W 085°31'  
2015-Jul-18 23:33N 45°44' W 085°29'1313.1
2015-Jul-18 22:33N 45°32' W 085°22'1313.1
2015-Jul-18 21:33N 45°19' W 085°16'0 0.2
2015-Jul-18 20:33N 45°19' W 085°16'1312.8
2015-Jul-18 19:33N 45°31' W 085°22'1313.1
2015-Jul-18 18:33N 45°43' W 085°29'0 0.0
2015-Jul-18 17:34N 45°43' W 085°29'1313.0
2015-Jul-18 16:34N 45°31' W 085°22'1312.8
2015-Jul-18 15:34N 45°19' W 085°16'0 0.3
2015-Jul-18 14:33N 45°19' W 085°16'1312.7
2015-Jul-18 13:33N 45°31' W 085°22'1313.0
2015-Jul-18 12:33N 45°43' W 085°29'2 2.3
2015-Jul-18 11:29N 45°45' W 085°31'0 0.0
2015-Jul-17 00:04N 45°45' W 085°31'2 4.8
2015-Jul-16 23:33N 45°43' W 085°29'1312.8
2015-Jul-16 22:33N 45°31' W 085°24'1312.8
2015-Jul-16 21:33N 45°19' W 085°16'0 0.3
2015-Jul-16 20:33N 45°19' W 085°15'1212.2
2015-Jul-16 19:33N 45°30' W 085°22'1313.4
2015-Jul-16 18:33N 45°43' W 085°29'3 2.4
2015-Jul-16 17:31N 45°45' W 085°31'  
Track history (hours):
 
Tides and Currents Weather Stations Pressure Air Temp Water Temp Dewpoint Dewpoint Depression Visibility Wind Speed Wind Dir Waves Ship Positions

Beaver Islander

Owner: BEAVER ISLAND BOAT CO, CHARLEVOIX, MI. More information available from US FCC via Universal Licensing System and Coast Guard Vessel Documentation Center.

Last reported at 2015-Jul-25 23:33 UTC. Time now 2015-Jul-31 23:30 UTC.
Position N 45°44' W 085°30'.

Length 28 m; draft 3 m.

Type: Passenger vessel. MMSI: 366936060.

Date/timePositionNaut miles runAvg speedWind from/ knotsBaromVisibWave heightAir tempDewpointWater temp
2015-Jul-25 23:33N 45°44' W 085°30'1313.1
2015-Jul-25 22:33N 45°32' W 085°23'1313.3
2015-Jul-25 21:33N 45°19' W 085°16'0 0.3
2015-Jul-25 20:33N 45°19' W 085°15'1212.4
2015-Jul-25 19:34N 45°31' W 085°22'1313.2
2015-Jul-25 18:33N 45°43' W 085°29'0 0.5
2015-Jul-25 17:33N 45°43' W 085°29'1312.9
2015-Jul-25 16:33N 45°31' W 085°22'1312.9
2015-Jul-25 15:33N 45°19' W 085°16'0 0.4
2015-Jul-25 14:33N 45°19' W 085°16'1312.6
2015-Jul-25 13:33N 45°31' W 085°22'1313.1
2015-Jul-25 12:33N 45°43' W 085°29'2 2.3
2015-Jul-25 11:29N 45°45' W 085°31'2 0.2
2015-Jul-24 23:33N 45°44' W 085°29'1313.2
2015-Jul-24 22:33N 45°31' W 085°22'1312.9
2015-Jul-24 21:33N 45°19' W 085°16'0 0.2
2015-Jul-24 20:33N 45°19' W 085°15'1212.4
2015-Jul-24 19:33N 45°31' W 085°22'1313.2
2015-Jul-24 18:33N 45°43' W 085°29'1 0.7
2015-Jul-24 17:33N 45°44' W 085°29'1313.1
2015-Jul-24 16:33N 45°31' W 085°22'1313.0
2015-Jul-24 15:33N 45°19' W 085°16'0 0.3
2015-Jul-24 14:33N 45°19' W 085°15'1312.7
2015-Jul-24 13:33N 45°31' W 085°22'1313.3
2015-Jul-24 12:33N 45°43' W 085°29'2 2.2
2015-Jul-24 11:33N 45°45' W 085°31'  
2015-Jul-18 23:33N 45°44' W 085°29'1313.1
2015-Jul-18 22:33N 45°32' W 085°22'1313.1
2015-Jul-18 21:33N 45°19' W 085°16'0 0.2
2015-Jul-18 20:33N 45°19' W 085°16'1312.8
2015-Jul-18 19:33N 45°31' W 085°22'1313.1
2015-Jul-18 18:33N 45°43' W 085°29'0 0.0
2015-Jul-18 17:34N 45°43' W 085°29'1313.0
2015-Jul-18 16:34N 45°31' W 085°22'1312.8
2015-Jul-18 15:34N 45°19' W 085°16'0 0.3
2015-Jul-18 14:33N 45°19' W 085°16'1312.7
2015-Jul-18 13:33N 45°31' W 085°22'1313.0
2015-Jul-18 12:33N 45°43' W 085°29'2 2.3
2015-Jul-18 11:29N 45°45' W 085°31'0 0.0
2015-Jul-17 00:04N 45°45' W 085°31'2 4.8
2015-Jul-16 23:33N 45°43' W 085°29'1312.8
2015-Jul-16 22:33N 45°31' W 085°24'1312.8
2015-Jul-16 21:33N 45°19' W 085°16'0 0.3
2015-Jul-16 20:33N 45°19' W 085°15'1212.2
2015-Jul-16 19:33N 45°30' W 085°22'1313.4
2015-Jul-16 18:33N 45°43' W 085°29'3 2.4
2015-Jul-16 17:31N 45°45' W 085°31'  

Dump ship's entire track history